Time;durP1;ratioP1;P1;durP2;ratioP2;P2;SDS_P1;SDS_P2;PMS_P1;PMS_P2;Temp;Humidity;BMP_temperature;BMP_pressure;BME280_temperature;BME280_humidity;BME280_pressure;Samples;Min_cycle;Max_cycle;Signal;HPM_P1;HPM_P2
2021/03/10 00:00:43;;;;;;;8.57;7.43;;;0.50;99.90;;;;;;5101520;28;20202;-84
2021/03/10 00:03:09;;;;;;;11.25;7.45;;;-0.20;99.90;;;;;;5107443;28;20224;-83
2021/03/10 00:05:36;;;;;;;12.38;7.93;;;0.30;99.90;;;;;;5099170;28;20201;-84
2021/03/10 00:08:02;;;;;;;10.45;7.28;;;0.30;99.90;;;;;;5108283;28;20224;-84
2021/03/10 00:10:28;;;;;;;11.32;7.28;;;0.30;99.90;;;;;;5112686;28;20226;-84
2021/03/10 00:12:54;;;;;;;7.53;6.25;;;0.60;99.90;;;;;;5113274;28;20589;-83
2021/03/10 00:15:20;;;;;;;8.35;7.18;;;0.30;99.90;;;;;;5113845;28;20206;-83
2021/03/10 00:17:47;;;;;;;9.57;7.45;;;0.40;99.90;;;;;;5113822;28;20206;-83
2021/03/10 00:20:16;;;;;;;9.45;7.07;;;0.40;99.90;;;;;;5114594;28;20233;-83
2021/03/10 00:22:42;;;;;;;11.02;6.97;;;0.60;99.90;;;;;;5110014;28;20201;-84
2021/03/10 00:25:10;;;;;;;9.93;7.40;;;0.50;99.90;;;;;;5102662;28;20228;-85
2021/03/10 00:27:36;;;;;;;9.50;7.10;;;0.40;99.90;;;;;;5101503;28;20228;-84
2021/03/10 00:30:05;;;;;;;8.80;6.65;;;0.40;99.90;;;;;;5101781;28;20250;-84
2021/03/10 00:32:31;;;;;;;9.32;6.68;;;0.40;99.90;;;;;;5100239;28;20202;-84
2021/03/10 00:34:57;;;;;;;13.13;6.93;;;0.40;99.90;;;;;;5103717;28;20287;-85
2021/03/10 00:37:24;;;;;;;9.32;6.65;;;0.30;99.90;;;;;;5102571;28;20198;-85
2021/03/10 00:39:51;;;;;;;10.50;7.60;;;0.30;99.90;;;;;;5103625;28;20198;-85
2021/03/10 00:42:18;;;;;;;13.13;7.25;;;0.30;99.90;;;;;;5102637;28;20210;-85
2021/03/10 00:44:44;;;;;;;9.57;7.50;;;0.30;99.90;;;;;;5104770;28;20217;-84
2021/03/10 00:47:11;;;;;;;10.05;8.40;;;0.30;99.90;;;;;;5106854;28;20204;-84
2021/03/10 00:49:38;;;;;;;11.75;8.20;;;0.30;99.90;;;;;;5107639;28;20201;-84
2021/03/10 00:52:05;;;;;;;9.90;7.68;;;0.20;99.90;;;;;;5106789;28;20201;-84
2021/03/10 00:54:32;;;;;;;12.60;8.35;;;0.20;99.90;;;;;;5102777;28;20241;-85
2021/03/10 00:56:58;;;;;;;9.75;7.93;;;0.20;99.90;;;;;;5103193;28;20617;-84
2021/03/10 00:59:24;;;;;;;12.15;7.45;;;0.00;99.90;;;;;;5103445;28;20209;-84
2021/03/10 01:01:50;;;;;;;9.30;7.70;;;0.10;99.90;;;;;;5105951;28;20546;-85
2021/03/10 01:04:16;;;;;;;10.82;7.55;;;0.10;99.90;;;;;;5105029;28;20226;-84
2021/03/10 01:06:42;;;;;;;11.68;7.57;;;0.10;99.90;;;;;;5104326;28;20197;-85
2021/03/10 01:09:10;;;;;;;9.00;6.72;;;0.20;99.90;;;;;;5104145;28;20544;-85
2021/03/10 01:11:37;;;;;;;13.13;7.68;;;0.10;99.90;;;;;;5108132;28;20205;-85
2021/03/10 01:14:04;;;;;;;12.27;7.30;;;0.10;99.90;;;;;;5116641;28;20225;-83
2021/03/10 01:16:30;;;;;;;13.13;8.50;;;0.10;99.90;;;;;;5122292;28;20205;-83
2021/03/10 01:18:57;;;;;;;14.35;7.35;;;0.10;99.90;;;;;;5122073;28;20201;-83
2021/03/10 01:21:24;;;;;;;8.93;6.72;;;0.10;99.90;;;;;;5121444;28;20193;-84
2021/03/10 01:23:51;;;;;;;11.30;8.00;;;0.10;99.90;;;;;;5121239;28;20213;-84
2021/03/10 01:26:17;;;;;;;8.20;7.30;;;0.10;99.90;;;;;;5121249;28;20181;-84
2021/03/10 01:28:44;;;;;;;11.05;7.10;;;-0.20;99.90;;;;;;5121040;28;20205;-84
2021/03/10 01:31:11;;;;;;;14.32;7.80;;;-0.20;99.90;;;;;;5119937;28;20201;-84
2021/03/10 01:33:37;;;;;;;13.60;8.15;;;-0.20;99.90;;;;;;5112005;28;20229;-84
2021/03/10 01:36:03;;;;;;;10.75;8.15;;;-0.40;99.90;;;;;;5114386;28;20201;-85
2021/03/10 01:38:29;;;;;;;12.65;7.70;;;-0.20;99.90;;;;;;5110197;28;20197;-85
2021/03/10 01:40:56;;;;;;;11.50;7.57;;;-0.20;99.90;;;;;;5105173;28;20201;-85
2021/03/10 01:43:22;;;;;;;15.18;8.63;;;0.00;99.90;;;;;;5104567;28;20225;-85
2021/03/10 01:45:49;;;;;;;13.75;8.73;;;-0.20;99.90;;;;;;5107690;28;20197;-85
2021/03/10 01:48:19;;;;;;;11.43;7.38;;;-0.30;99.90;;;;;;5108178;28;20202;-84
2021/03/10 01:50:46;;;;;;;10.13;7.55;;;-0.30;99.90;;;;;;5107307;28;20587;-83
2021/03/10 01:53:12;;;;;;;13.70;8.88;;;-0.50;99.90;;;;;;5112669;28;20221;-84
2021/03/10 01:55:38;;;;;;;14.32;9.43;;;-0.30;99.90;;;;;;5113144;28;20259;-85
2021/03/10 01:58:05;;;;;;;10.02;7.80;;;-0.30;99.90;;;;;;5115065;28;20232;-84
2021/03/10 02:00:32;;;;;;;15.02;8.70;;;-0.20;99.90;;;;;;5115660;28;20213;-84
2021/03/10 02:02:59;;;;;;;13.80;7.90;;;-0.20;99.90;;;;;;5113480;28;20193;-84
2021/03/10 02:05:26;;;;;;;14.05;8.20;;;-0.40;99.90;;;;;;5107934;28;20202;-85
2021/03/10 02:08:07;;;;;;;9.60;7.10;;;-0.70;99.90;;;;;;5105281;28;20202;-84
2021/03/10 02:10:49;;;;;;;15.95;8.88;;;-0.70;99.90;;;;;;5101611;28;20186;-83
2021/03/10 02:13:22;;;;;;;14.52;8.73;;;-0.50;99.90;;;;;;5104564;28;20241;-85
2021/03/10 02:15:55;;;;;;;17.73;9.25;;;-0.40;99.90;;;;;;5101897;28;20652;-85
2021/03/10 02:18:26;;;;;;;11.43;7.40;;;-0.40;99.90;;;;;;5103499;28;20185;-85
2021/03/10 02:20:57;;;;;;;13.68;9.57;;;-0.40;99.90;;;;;;5103681;28;20208;-84
2021/03/10 02:23:46;;;;;;;12.75;8.27;;;-0.40;99.90;;;;;;5102634;28;20229;-83
2021/03/10 02:26:30;;;;;;;12.68;8.80;;;-0.40;99.90;;;;;;5102178;28;20543;-85
2021/03/10 02:29:01;;;;;;;14.00;8.75;;;-0.40;99.90;;;;;;5101611;28;20213;-85
2021/03/10 02:31:29;;;;;;;16.17;8.60;;;-0.50;99.90;;;;;;5101107;28;20190;-84
2021/03/10 02:33:57;;;;;;;14.18;9.00;;;-0.30;99.90;;;;;;5103399;28;20228;-85
2021/03/10 02:36:25;;;;;;;13.23;9.07;;;-0.70;99.90;;;;;;5103213;28;20213;-85
2021/03/10 02:38:53;;;;;;;13.02;9.68;;;-0.60;99.90;;;;;;5102844;28;20216;-85
2021/03/10 02:41:20;;;;;;;14.20;8.30;;;-0.70;99.90;;;;;;5101993;28;20247;-85
2021/03/10 02:43:48;;;;;;;22.98;9.63;;;-0.60;99.90;;;;;;5103128;28;20633;-84
2021/03/10 02:46:17;;;;;;;10.90;8.80;;;-0.50;99.90;;;;;;5102332;28;20208;-85
2021/03/10 02:48:43;;;;;;;13.98;8.70;;;-0.60;99.90;;;;;;5104024;28;20204;-85
2021/03/10 02:51:10;;;;;;;13.68;8.80;;;-0.50;99.90;;;;;;5104020;28;20198;-84
2021/03/10 02:53:40;;;;;;;16.95;8.27;;;-0.50;99.90;;;;;;5102024;28;20229;-84
2021/03/10 02:56:10;;;;;;;12.65;8.30;;;-0.50;99.90;;;;;;5103755;28;20194;-85
2021/03/10 02:58:36;;;;;;;14.35;9.35;;;-0.30;99.90;;;;;;5101084;28;20571;-85
2021/03/10 03:01:03;;;;;;;14.02;8.77;;;-0.50;99.90;;;;;;5102672;28;20608;-84
2021/03/10 03:03:30;;;;;;;12.65;8.93;;;-0.70;99.90;;;;;;5101761;28;20222;-85
2021/03/10 03:05:57;;;;;;;18.27;9.57;;;-0.70;99.90;;;;;;5102273;28;20205;-84
2021/03/10 03:08:24;;;;;;;18.77;10.25;;;-0.70;99.90;;;;;;5101511;28;20198;-84
2021/03/10 03:10:50;;;;;;;12.68;8.52;;;-0.70;99.90;;;;;;5105970;28;20229;-84
2021/03/10 03:13:18;;;;;;;16.45;8.98;;;-0.80;99.90;;;;;;5115895;28;20213;-82
2021/03/10 03:15:49;;;;;;;18.10;9.15;;;0.40;99.90;;;;;;5109036;28;20194;-85
2021/03/10 03:18:16;;;;;;;18.23;9.20;;;-1.00;99.90;;;;;;5119766;28;20170;-85
2021/03/10 03:20:43;;;;;;;18.67;9.60;;;-0.50;99.90;;;;;;5119412;28;20223;-84
2021/03/10 03:23:10;;;;;;;11.07;8.32;;;-0.70;99.90;;;;;;5119435;28;20190;-83
2021/03/10 03:25:39;;;;;;;16.63;11.55;;;-0.70;99.90;;;;;;5118954;28;20197;-84
2021/03/10 03:28:07;;;;;;;16.27;11.45;;;-0.70;99.90;;;;;;5104032;28;20201;-85
2021/03/10 03:30:35;;;;;;;14.32;10.25;;;-0.70;99.90;;;;;;5102348;28;20202;-85
2021/03/10 03:33:05;;;;;;;15.75;9.85;;;-0.80;99.90;;;;;;5101776;28;20229;-83
2021/03/10 03:35:32;;;;;;;14.77;9.40;;;-0.70;99.90;;;;;;5101383;28;20608;-85
2021/03/10 03:38:00;;;;;;;13.43;9.10;;;-0.80;99.90;;;;;;5100669;28;20281;-85
2021/03/10 03:40:27;;;;;;;16.67;9.18;;;-0.80;99.90;;;;;;5100791;28;20202;-85
2021/03/10 03:42:53;;;;;;;18.67;9.60;;;-0.80;99.90;;;;;;5113956;28;20229;-85
2021/03/10 03:45:22;;;;;;;12.00;9.55;;;-0.50;99.90;;;;;;5113620;28;20206;-85
2021/03/10 03:47:49;;;;;;;20.05;10.05;;;-0.80;99.90;;;;;;5112486;28;20714;-84
2021/03/10 03:50:16;;;;;;;15.73;9.27;;;-0.80;99.90;;;;;;5113768;28;20221;-84
2021/03/10 03:52:43;;;;;;;13.77;8.73;;;-0.80;99.90;;;;;;5110307;28;20672;-84
2021/03/10 03:55:11;;;;;;;15.32;9.93;;;-0.90;99.90;;;;;;5101462;28;20271;-84
2021/03/10 03:57:37;;;;;;;16.02;10.18;;;-0.90;99.90;;;;;;5100625;28;20201;-84
2021/03/10 04:00:06;;;;;;;21.42;10.85;;;-0.90;99.90;;;;;;5103714;28;20210;-84
2021/03/10 04:02:32;;;;;;;22.88;11.50;;;-0.90;99.90;;;;;;5117045;28;20198;-85
2021/03/10 04:04:58;;;;;;;17.60;11.50;;;-1.00;99.90;;;;;;5116775;28;20428;-85
2021/03/10 04:07:24;;;;;;;15.60;10.90;;;-0.90;99.90;;;;;;5112594;28;20194;-85
2021/03/10 04:09:51;;;;;;;18.13;10.73;;;-0.60;99.90;;;;;;5111728;28;20216;-85
2021/03/10 04:12:17;;;;;;;17.25;11.30;;;-0.90;99.90;;;;;;5103539;28;20209;-85
2021/03/10 04:14:44;;;;;;;18.10;11.07;;;-0.80;99.90;;;;;;5100162;28;20226;-86
2021/03/10 04:17:10;;;;;;;21.65;10.80;;;-1.00;99.90;;;;;;5107650;28;20202;-84
2021/03/10 04:19:36;;;;;;;17.75;10.55;;;-0.80;99.90;;;;;;5105714;28;20342;-85
2021/03/10 04:22:02;;;;;;;15.20;9.82;;;-1.30;99.90;;;;;;5108908;28;20202;-84
2021/03/10 04:24:28;;;;;;;16.10;11.20;;;-1.10;99.90;;;;;;5109381;28;20248;-85
2021/03/10 04:26:54;;;;;;;18.00;10.32;;;-1.10;99.90;;;;;;5109442;28;20205;-84
2021/03/10 04:29:21;;;;;;;17.30;10.27;;;-1.10;99.90;;;;;;5110385;28;20197;-84
2021/03/10 04:31:47;;;;;;;16.60;10.45;;;-1.00;99.90;;;;;;5110841;28;20204;-84
2021/03/10 04:34:13;;;;;;;21.77;10.82;;;-1.00;99.90;;;;;;5110839;28;20255;-85
2021/03/10 04:36:39;;;;;;;18.08;10.57;;;-0.90;99.90;;;;;;5110333;28;20202;-85
2021/03/10 04:39:05;;;;;;;19.35;11.27;;;-1.10;99.90;;;;;;5110509;28;20213;-84
2021/03/10 04:41:32;;;;;;;20.48;11.02;;;-1.20;99.90;;;;;;5110728;28;20212;-84
2021/03/10 04:43:58;;;;;;;19.80;10.75;;;-1.40;99.90;;;;;;5109317;28;20429;-83
2021/03/10 04:46:25;;;;;;;21.70;13.65;;;-1.10;99.90;;;;;;5110629;28;20210;-85
2021/03/10 04:48:51;;;;;;;23.00;12.10;;;-1.00;99.90;;;;;;5113686;28;20205;-84
2021/03/10 04:51:17;;;;;;;15.63;10.35;;;-1.00;99.90;;;;;;5115337;28;20209;-83
2021/03/10 04:53:43;;;;;;;21.33;11.18;;;-1.00;99.90;;;;;;5115005;28;20230;-83
2021/03/10 04:56:09;;;;;;;16.73;10.77;;;-1.00;99.90;;;;;;5115581;28;20210;-84
2021/03/10 04:58:35;;;;;;;17.50;10.07;;;-1.20;99.90;;;;;;5113571;28;20202;-84
2021/03/10 05:01:01;;;;;;;18.42;10.18;;;-1.20;99.90;;;;;;5111166;28;20251;-84
2021/03/10 05:03:28;;;;;;;14.93;10.50;;;-1.20;99.90;;;;;;5107582;28;20283;-84
2021/03/10 05:05:54;;;;;;;17.20;11.43;;;-1.20;99.90;;;;;;5105518;28;20680;-84
2021/03/10 05:08:21;;;;;;;20.35;11.63;;;-1.20;99.90;;;;;;5106073;28;20610;-85
2021/03/10 05:10:47;;;;;;;16.50;10.88;;;-1.20;99.90;;;;;;5101472;28;20206;-84
2021/03/10 05:13:14;;;;;;;17.20;11.30;;;-1.20;99.90;;;;;;5103746;28;20221;-84
2021/03/10 05:15:40;;;;;;;16.67;10.43;;;-1.40;99.90;;;;;;5100743;28;20097;-85
2021/03/10 05:18:06;;;;;;;22.23;12.48;;;-1.40;99.90;;;;;;5103478;28;20202;-84
2021/03/10 05:20:33;;;;;;;18.55;11.07;;;-1.50;99.90;;;;;;5105211;28;20202;-83
2021/03/10 05:22:59;;;;;;;19.83;11.38;;;-1.20;99.90;;;;;;5106766;28;20201;-85
2021/03/10 05:25:25;;;;;;;23.98;13.63;;;-0.60;99.90;;;;;;5105647;28;20433;-84
2021/03/10 05:27:51;;;;;;;16.90;11.55;;;-1.40;99.90;;;;;;5105647;28;20201;-85
2021/03/10 05:30:18;;;;;;;16.08;12.55;;;-1.40;99.90;;;;;;5111105;28;20202;-84
2021/03/10 05:32:44;;;;;;;21.90;10.90;;;-1.60;99.90;;;;;;5113062;28;20205;-84
2021/03/10 05:35:11;;;;;;;18.80;10.20;;;-1.70;99.90;;;;;;5116121;22;20604;-79
2021/03/10 05:37:38;;;;;;;20.58;12.50;;;-1.50;99.90;;;;;;5103792;28;20213;-79
2021/03/10 05:40:06;;;;;;;20.83;11.93;;;-1.40;99.90;;;;;;5118950;28;20198;-79
2021/03/10 05:42:32;;;;;;;17.27;11.45;;;-1.40;99.90;;;;;;5102242;28;20268;-79
2021/03/10 05:44:59;;;;;;;20.42;11.63;;;-1.30;99.90;;;;;;5100425;28;20271;-80
2021/03/10 05:47:25;;;;;;;20.88;12.98;;;-1.60;99.90;;;;;;5100112;28;20197;-79
2021/03/10 05:49:51;;;;;;;18.63;12.05;;;-1.60;99.90;;;;;;5106044;28;20206;-78
2021/03/10 05:52:17;;;;;;;20.95;13.00;;;-1.60;99.90;;;;;;5118546;28;20209;-80
2021/03/10 05:54:44;;;;;;;22.65;12.18;;;-1.50;99.90;;;;;;5114650;28;20321;-79
2021/03/10 05:57:12;;;;;;;23.55;12.52;;;-1.30;99.90;;;;;;5112081;28;20212;-78
2021/03/10 05:59:38;;;;;;;21.15;11.23;;;-1.40;99.90;;;;;;5106699;28;20202;-78
2021/03/10 06:02:04;;;;;;;21.73;12.02;;;-1.50;99.90;;;;;;5107971;28;20202;-78
2021/03/10 06:04:41;;;;;;;21.30;12.43;;;-1.50;99.90;;;;;;5109580;28;20225;-79
2021/03/10 06:07:18;;;;;;;19.58;11.82;;;-1.60;99.90;;;;;;5110735;28;20197;-79
2021/03/10 06:09:56;;;;;;;21.38;12.60;;;-1.70;99.90;;;;;;5109334;28;20256;-79
2021/03/10 06:12:22;;;;;;;16.23;11.23;;;-1.60;99.90;;;;;;5107747;28;20660;-81
2021/03/10 06:14:58;;;;;;;18.70;11.70;;;-1.40;99.90;;;;;;5103877;28;20226;-81
2021/03/10 06:17:24;;;;;;;21.65;11.93;;;-1.20;99.90;;;;;;5101874;28;20186;-79
2021/03/10 06:19:51;;;;;;;20.27;11.77;;;-1.10;99.90;;;;;;5101391;28;20582;-79
2021/03/10 06:22:18;;;;;;;19.02;10.68;;;-1.00;99.90;;;;;;5102431;28;20197;-80
2021/03/10 06:24:45;;;;;;;23.83;12.73;;;-1.00;99.90;;;;;;5102482;28;20267;-80
2021/03/10 06:27:16;;;;;;;19.80;11.75;;;-1.00;99.90;;;;;;5103893;28;20249;-79
2021/03/10 06:29:42;;;;;;;22.83;12.80;;;-1.00;99.90;;;;;;5106765;28;20186;-81
2021/03/10 06:32:10;;;;;;;26.13;13.88;;;-0.60;99.90;;;;;;5113766;28;20202;-78
2021/03/10 06:34:45;;;;;;;22.70;11.98;;;-1.00;99.90;;;;;;5116774;28;20226;-80
2021/03/10 06:37:11;;;;;;;19.85;11.48;;;-0.90;99.90;;;;;;5114668;28;20201;-81
2021/03/10 06:39:38;;;;;;;17.05;11.60;;;-1.00;99.90;;;;;;5114693;28;20209;-79
2021/03/10 06:42:13;;;;;;;21.25;12.30;;;-0.60;99.90;;;;;;5115680;28;20202;-81
2021/03/10 06:44:48;;;;;;;22.92;13.57;;;-0.80;99.90;;;;;;5115229;28;20247;-80
2021/03/10 06:47:14;;;;;;;22.42;13.27;;;-0.80;99.90;;;;;;5114496;28;20190;-81
2021/03/10 06:49:49;;;;;;;19.00;11.50;;;-0.90;99.90;;;;;;5119162;28;20200;-81
2021/03/10 06:52:16;;;;;;;17.13;11.70;;;-0.90;99.90;;;;;;5117307;28;20230;-79
2021/03/10 06:54:53;;;;;;;23.25;12.82;;;-0.70;99.90;;;;;;5110424;28;20244;-80
2021/03/10 06:57:20;;;;;;;18.83;11.30;;;-0.90;99.90;;;;;;5107267;28;20190;-80
2021/03/10 06:59:48;;;;;;;20.90;12.82;;;-0.70;99.90;;;;;;5112151;28;20224;-79
2021/03/10 07:02:16;;;;;;;20.73;14.13;;;-0.80;99.90;;;;;;5113696;28;20261;-80
2021/03/10 07:04:43;;;;;;;25.65;14.75;;;-0.70;99.90;;;;;;5104111;28;20229;-81
2021/03/10 07:07:09;;;;;;;26.60;13.90;;;-0.60;99.90;;;;;;5106573;28;20212;-78
2021/03/10 07:09:36;;;;;;;21.85;12.38;;;-0.50;99.90;;;;;;5113465;28;20514;-79
2021/03/10 07:12:03;;;;;;;25.35;13.85;;;-0.40;99.90;;;;;;5103285;28;20198;-80
2021/03/10 07:14:30;;;;;;;26.17;15.02;;;-0.30;99.90;;;;;;5116067;28;20251;-79
2021/03/10 07:16:57;;;;;;;29.00;13.43;;;-0.30;99.90;;;;;;5116456;28;20206;-80
2021/03/10 07:19:23;;;;;;;23.60;12.85;;;-0.20;99.90;;;;;;5116407;28;20628;-80
2021/03/10 07:21:56;;;;;;;26.67;13.40;;;-0.20;99.90;;;;;;5117385;28;20193;-80
2021/03/10 07:24:28;;;;;;;26.33;14.70;;;-0.10;99.90;;;;;;5116108;28;20222;-80
2021/03/10 07:26:56;;;;;;;22.02;15.20;;;-0.10;99.90;;;;;;5115703;28;20186;-79
2021/03/10 07:29:23;;;;;;;30.50;14.43;;;0.00;99.90;;;;;;5103960;28;20752;-79
2021/03/10 07:31:59;;;;;;;23.77;14.82;;;0.10;99.90;;;;;;5099897;28;20202;-79
2021/03/10 07:34:25;;;;;;;24.15;13.30;;;0.10;99.90;;;;;;5098470;28;20237;-81
2021/03/10 07:36:51;;;;;;;23.35;14.32;;;0.30;99.90;;;;;;5098391;28;20249;-80
2021/03/10 07:39:23;;;;;;;22.95;13.15;;;0.60;99.90;;;;;;5100043;28;20231;-80
2021/03/10 07:41:50;;;;;;;20.80;13.30;;;0.40;99.90;;;;;;5100329;28;20206;-80
2021/03/10 07:44:18;;;;;;;29.85;13.93;;;0.50;99.90;;;;;;5100543;28;20271;-80
2021/03/10 07:46:45;;;;;;;24.23;13.50;;;0.50;99.90;;;;;;5099727;28;20228;-81
2021/03/10 07:49:21;;;;;;;26.50;15.07;;;0.60;99.90;;;;;;5101839;28;20210;-79
2021/03/10 07:51:48;;;;;;;21.40;12.75;;;0.70;99.90;;;;;;5106026;28;20582;-80
2021/03/10 07:54:19;;;;;;;26.10;13.15;;;0.70;99.90;;;;;;5106897;28;20222;-79
2021/03/10 07:56:46;;;;;;;22.00;13.85;;;0.80;99.90;;;;;;5107382;28;20210;-79
2021/03/10 07:59:13;;;;;;;19.80;13.35;;;0.70;99.90;;;;;;5100769;28;20235;-79
2021/03/10 08:01:40;;;;;;;28.75;14.88;;;0.80;99.90;;;;;;5100953;28;20205;-78
2021/03/10 08:04:14;;;;;;;24.40;14.13;;;1.00;99.90;;;;;;5100242;28;20252;-78
2021/03/10 08:06:48;;;;;;;21.77;13.77;;;1.10;99.90;;;;;;5099008;28;20260;-79
2021/03/10 08:09:15;;;;;;;21.02;13.77;;;1.20;99.90;;;;;;5098427;28;20189;-79
2021/03/10 08:11:45;;;;;;;23.15;13.85;;;1.30;99.90;;;;;;5098878;28;20690;-82
2021/03/10 08:14:13;;;;;;;25.25;14.07;;;1.40;99.90;;;;;;5098519;28;20244;-79
2021/03/10 08:16:44;;;;;;;20.50;13.70;;;1.50;99.90;;;;;;5098995;28;20572;-80
2021/03/10 08:19:11;;;;;;;25.65;13.50;;;1.60;99.90;;;;;;5098686;28;20190;-79
2021/03/10 08:21:47;;;;;;;26.80;14.60;;;2.00;99.90;;;;;;5097700;28;20255;-80
2021/03/10 08:24:14;;;;;;;26.77;15.07;;;1.80;99.90;;;;;;5097332;28;20336;-80
2021/03/10 08:26:41;;;;;;;18.67;13.50;;;1.90;99.90;;;;;;5097882;28;20201;-79
2021/03/10 08:29:08;;;;;;;19.95;13.38;;;1.90;99.90;;;;;;5098130;28;20198;-79
2021/03/10 08:31:43;;;;;;;21.65;12.63;;;2.10;99.90;;;;;;5101839;28;20206;-78
2021/03/10 08:34:09;;;;;;;21.92;13.48;;;2.20;99.90;;;;;;5113136;28;20229;-77
2021/03/10 08:36:36;;;;;;;21.02;13.95;;;2.30;99.90;;;;;;5114763;28;20240;-80
2021/03/10 08:39:07;;;;;;;22.50;13.05;;;2.60;99.90;;;;;;5100766;28;20271;-80
2021/03/10 08:41:45;;;;;;;25.55;13.63;;;2.50;99.90;;;;;;5099487;28;20197;-80
2021/03/10 08:44:11;;;;;;;30.75;14.35;;;2.50;99.90;;;;;;5099583;28;20315;-81
2021/03/10 08:46:39;;;;;;;24.25;13.07;;;2.60;99.90;;;;;;5099944;28;20205;-79
2021/03/10 08:49:15;;;;;;;17.58;11.88;;;2.70;99.90;;;;;;5102210;28;20201;-79
2021/03/10 08:51:41;;;;;;;25.40;12.55;;;2.90;99.90;;;;;;5099754;28;20204;-80
2021/03/10 08:54:07;;;;;;;17.48;12.93;;;3.40;99.90;;;;;;5105622;28;20213;-80
2021/03/10 08:56:34;;;;;;;20.95;11.90;;;3.80;99.90;;;;;;5116057;28;20185;-79
2021/03/10 08:59:00;;;;;;;18.58;11.98;;;3.90;99.90;;;;;;5116118;28;20185;-78
2021/03/10 09:01:27;;;;;;;19.67;12.38;;;3.90;99.90;;;;;;5105137;28;20206;-80
2021/03/10 09:03:53;;;;;;;17.35;11.05;;;3.80;99.90;;;;;;5096610;28;20218;-80
2021/03/10 09:06:21;;;;;;;22.15;10.82;;;3.70;99.90;;;;;;5100613;28;20202;-80
2021/03/10 09:08:48;;;;;;;14.73;11.23;;;3.90;99.90;;;;;;5101293;28;20210;-81
2021/03/10 09:11:19;;;;;;;16.45;11.00;;;4.00;99.90;;;;;;5103871;28;20202;-82
2021/03/10 09:13:45;;;;;;;10.85;8.55;;;4.10;99.90;;;;;;5105768;28;20229;-79
2021/03/10 09:16:13;;;;;;;14.32;9.85;;;4.10;99.90;;;;;;5105361;28;20228;-79
2021/03/10 09:18:39;;;;;;;16.17;10.70;;;4.20;99.90;;;;;;5102951;28;20255;-79
2021/03/10 09:21:06;;;;;;;13.88;9.45;;;4.30;99.90;;;;;;5101475;28;20209;-79
2021/03/10 09:23:32;;;;;;;13.55;9.32;;;4.10;99.40;;;;;;5101036;28;20221;-79
2021/03/10 09:25:58;;;;;;;15.73;10.35;;;4.20;99.90;;;;;;5101436;28;20205;-79
2021/03/10 09:28:33;;;;;;;14.65;9.35;;;4.30;99.90;;;;;;5101144;28;20197;-81
2021/03/10 09:31:00;;;;;;;13.77;9.77;;;4.50;99.90;;;;;;5103752;28;20561;-80
2021/03/10 09:33:28;;;;;;;14.32;9.52;;;5.40;99.90;;;;;;5109040;28;20208;-78
2021/03/10 09:35:56;;;;;;;15.27;9.15;;;4.50;98.60;;;;;;5114799;28;20193;-81
2021/03/10 09:38:25;;;;;;;16.65;9.55;;;4.70;99.50;;;;;;5106041;28;20254;-79
2021/03/10 09:40:53;;;;;;;13.70;9.50;;;4.80;97.80;;;;;;5102807;28;20205;-80
2021/03/10 09:43:21;;;;;;;12.50;8.68;;;5.10;99.90;;;;;;5103075;28;20228;-81
2021/03/10 09:45:49;;;;;;;16.52;10.38;;;5.00;96.80;;;;;;5102041;28;20205;-79
2021/03/10 09:48:28;;;;;;;15.45;9.10;;;5.30;95.50;;;;;;5104217;28;20209;-81
2021/03/10 09:51:04;;;;;;;11.68;7.63;;;5.50;95.80;;;;;;5113016;28;20189;-78
2021/03/10 09:53:32;;;;;;;15.60;8.75;;;5.60;99.90;;;;;;5115525;28;20189;-80
2021/03/10 09:56:06;;;;;;;13.32;9.80;;;5.50;91.30;;;;;;5113774;28;20206;-78
2021/03/10 09:58:32;;;;;;;14.65;7.75;;;5.50;91.00;;;;;;5113325;28;20201;-78
2021/03/10 10:01:00;;;;;;;9.13;7.75;;;5.50;90.40;;;;;;5112316;28;20193;-78
2021/03/10 10:03:26;;;;;;;9.82;7.03;;;5.60;99.90;;;;;;5111841;28;20202;-79
2021/03/10 10:06:02;;;;;;;9.63;7.25;;;5.70;91.80;;;;;;5113629;28;20206;-79
2021/03/10 10:08:29;;;;;;;10.95;7.22;;;5.80;90.70;;;;;;5112052;28;20185;-82
2021/03/10 10:10:55;;;;;;;9.65;6.53;;;5.80;87.90;;;;;;5115792;28;20217;-79
2021/03/10 10:13:21;;;;;;;10.75;7.07;;;6.00;96.90;;;;;;5108100;28;20672;-80
2021/03/10 10:15:47;;;;;;;9.65;6.35;;;6.00;86.00;;;;;;5106406;28;20579;-81
2021/03/10 10:18:13;;;;;;;10.50;6.60;;;6.00;85.80;;;;;;5115579;28;20202;-80
2021/03/10 10:20:40;;;;;;;10.25;6.97;;;6.10;90.40;;;;;;5116084;28;20231;-79
2021/03/10 10:23:06;;;;;;;9.85;6.15;;;6.20;86.90;;;;;;5115558;28;20220;-81
2021/03/10 10:25:33;;;;;;;8.00;4.75;;;6.30;78.50;;;;;;5112240;28;20305;-80
2021/03/10 10:28:00;;;;;;;12.45;6.40;;;6.30;76.90;;;;;;5118539;28;20223;-78
2021/03/10 10:30:27;;;;;;;7.90;5.35;;;6.40;79.60;;;;;;5116369;28;20206;-79
2021/03/10 10:32:53;;;;;;;6.00;5.00;;;6.50;81.30;;;;;;5105796;28;20206;-77
2021/03/10 10:35:20;;;;;;;5.03;4.50;;;6.60;77.40;;;;;;5112299;28;20245;-79
2021/03/10 10:37:46;;;;;;;5.65;5.13;;;6.60;68.50;;;;;;5118000;28;20197;-79
2021/03/10 10:40:15;;;;;;;6.57;5.13;;;6.70;75.00;;;;;;5116386;28;20201;-78
2021/03/10 10:42:42;;;;;;;5.78;3.97;;;6.80;71.10;;;;;;5105442;28;20698;-81
2021/03/10 10:45:10;;;;;;;7.75;5.10;;;6.90;71.10;;;;;;5102545;28;20225;-80
2021/03/10 10:47:36;;;;;;;7.13;5.80;;;6.90;72.20;;;;;;5114467;28;20185;-77
2021/03/10 10:50:04;;;;;;;7.57;6.85;;;6.80;90.80;;;;;;5117963;28;20197;-78
2021/03/10 10:52:30;;;;;;;8.38;5.97;;;6.70;83.70;;;;;;5117293;28;20202;-78
2021/03/10 10:54:57;;;;;;;6.72;4.65;;;6.90;66.90;;;;;;5117196;28;20221;-79
2021/03/10 10:57:23;;;;;;;5.55;4.25;;;7.00;70.70;;;;;;5117684;28;20201;-78
2021/03/10 10:59:50;;;;;;;6.53;5.10;;;6.90;66.50;;;;;;5118505;28;20205;-77
2021/03/10 11:02:16;;;;;;;7.63;5.10;;;6.80;60.20;;;;;;5116785;28;20210;-78
2021/03/10 11:04:43;;;;;;;18.77;7.15;;;6.80;65.20;;;;;;5116833;28;20722;-77
2021/03/10 11:07:09;;;;;;;9.10;5.88;;;7.00;67.20;;;;;;5116797;28;20193;-79
2021/03/10 11:09:36;;;;;;;7.80;5.18;;;7.10;62.00;;;;;;5113445;28;20616;-81
2021/03/10 11:12:03;;;;;;;5.78;5.20;;;7.50;62.80;;;;;;5104180;28;20200;-80
2021/03/10 11:14:29;;;;;;;11.55;4.82;;;7.70;82.10;;;;;;5101355;28;20676;-79
2021/03/10 11:16:57;;;;;;;5.07;4.15;;;7.40;63.20;;;;;;5102267;28;20235;-80
2021/03/10 11:19:23;;;;;;;9.93;4.70;;;7.50;61.60;;;;;;5101457;28;20202;-79
2021/03/10 11:21:50;;;;;;;10.05;4.50;;;7.40;62.30;;;;;;5100778;28;20275;-80
2021/03/10 11:24:16;;;;;;;8.20;5.38;;;7.50;64.50;;;;;;5100462;28;20561;-80
2021/03/10 11:26:43;;;;;;;6.43;4.35;;;7.60;61.90;;;;;;5101103;28;20202;-80
2021/03/10 11:29:09;;;;;;;4.90;4.40;;;7.50;59.30;;;;;;5103039;28;20202;-80
2021/03/10 11:31:36;;;;;;;9.60;5.18;;;7.40;59.40;;;;;;5103443;28;20202;-80
2021/03/10 11:34:03;;;;;;;11.73;8.25;;;7.20;70.30;;;;;;5118156;22;20245;-79
2021/03/10 11:36:29;;;;;;;14.68;9.25;;;7.30;59.40;;;;;;5100743;28;20201;-80
2021/03/10 11:38:55;;;;;;;9.25;6.90;;;7.40;63.30;;;;;;5100591;28;20276;-81
2021/03/10 11:41:21;;;;;;;7.10;6.13;;;7.60;62.50;;;;;;5099986;28;20208;-80
2021/03/10 11:43:47;;;;;;;6.43;5.65;;;7.20;75.50;;;;;;5102392;28;20205;-80
2021/03/10 11:46:14;;;;;;;7.35;5.63;;;;;;;;;;5103391;28;20703;-79
2021/03/10 11:48:40;;;;;;;6.75;5.50;;;7.40;61.00;;;;;;5103429;28;20198;-80
2021/03/10 11:51:08;;;;;;;7.10;5.53;;;7.50;61.40;;;;;;5105591;28;20216;-79
2021/03/10 11:53:34;;;;;;;8.40;5.82;;;7.50;60.10;;;;;;5104297;28;20209;-79
2021/03/10 11:56:00;;;;;;;9.23;6.05;;;7.60;63.90;;;;;;5100857;28;20245;-79
2021/03/10 11:58:27;;;;;;;9.88;5.25;;;7.80;77.20;;;;;;5100245;28;20581;-80
2021/03/10 12:00:53;;;;;;;9.00;6.57;;;7.70;59.00;;;;;;5098772;28;20236;-79
2021/03/10 12:03:19;;;;;;;11.88;7.20;;;7.80;62.00;;;;;;5098357;28;20201;-81
2021/03/10 12:05:46;;;;;;;11.63;7.15;;;7.70;59.00;;;;;;5098452;28;20263;-80
2021/03/10 12:08:13;;;;;;;8.98;7.68;;;7.70;61.10;;;;;;5098826;28;20208;-79
2021/03/10 12:10:41;;;;;;;11.70;6.93;;;7.70;61.70;;;;;;5100167;28;20269;-82
2021/03/10 12:13:07;;;;;;;9.50;5.60;;;;;;;;;;5102262;28;20197;-81
2021/03/10 12:15:37;;;;;;;7.15;5.05;;;7.80;55.90;;;;;;5103665;28;20237;-82
2021/03/10 12:18:03;;;;;;;9.63;5.90;;;7.80;56.30;;;;;;5104119;28;20202;-81
2021/03/10 12:20:30;;;;;;;8.32;5.57;;;7.60;52.90;;;;;;5103480;28;20198;-82
2021/03/10 12:22:56;;;;;;;7.25;5.63;;;7.60;65.80;;;;;;5104043;28;20239;-81
2021/03/10 12:25:23;;;;;;;6.22;4.43;;;7.80;57.10;;;;;;5104556;28;20224;-81
2021/03/10 12:27:50;;;;;;;6.25;5.13;;;7.80;57.20;;;;;;5103284;28;20198;-81
2021/03/10 12:30:17;;;;;;;9.52;6.97;;;7.80;59.40;;;;;;5102511;28;20245;-80
2021/03/10 12:32:44;;;;;;;9.27;6.15;;;;;;;;;;5101195;28;20656;-80
2021/03/10 12:35:11;;;;;;;7.95;5.28;;;7.90;71.00;;;;;;5099648;28;20233;-80
2021/03/10 12:37:37;;;;;;;7.20;5.53;;;8.10;72.00;;;;;;5099663;28;20208;-80
2021/03/10 12:40:04;;;;;;;6.13;5.57;;;7.80;55.10;;;;;;5102777;28;20265;-81
2021/03/10 12:42:31;;;;;;;7.07;5.82;;;7.80;56.10;;;;;;5104337;28;20186;-80